sensor_id;sensor_type;location;lat;lon;timestamp;P1;durP1;ratioP1;P2;durP2;ratioP2
15412;SDS011;7805;49.554;7.632;2022-12-19T00:01:03;58.47;;;30.07;;
15412;SDS011;7805;49.554;7.632;2022-12-19T00:03:32;56.37;;;29.70;;
15412;SDS011;7805;49.554;7.632;2022-12-19T00:06:02;53.30;;;28.23;;
15412;SDS011;7805;49.554;7.632;2022-12-19T00:08:28;52.00;;;28.57;;
15412;SDS011;7805;49.554;7.632;2022-12-19T00:10:55;56.40;;;29.23;;
15412;SDS011;7805;49.554;7.632;2022-12-19T00:13:22;51.37;;;29.20;;
15412;SDS011;7805;49.554;7.632;2022-12-19T00:15:48;56.80;;;30.00;;
15412;SDS011;7805;49.554;7.632;2022-12-19T00:18:13;54.87;;;29.03;;
15412;SDS011;7805;49.554;7.632;2022-12-19T00:20:39;52.30;;;28.27;;
15412;SDS011;7805;49.554;7.632;2022-12-19T00:23:04;55.23;;;28.63;;
15412;SDS011;7805;49.554;7.632;2022-12-19T00:25:30;55.27;;;29.63;;
15412;SDS011;7805;49.554;7.632;2022-12-19T00:27:55;52.00;;;29.67;;
15412;SDS011;7805;49.554;7.632;2022-12-19T00:30:21;51.20;;;28.40;;
15412;SDS011;7805;49.554;7.632;2022-12-19T00:32:46;60.47;;;30.77;;
15412;SDS011;7805;49.554;7.632;2022-12-19T00:35:12;53.03;;;28.87;;
15412;SDS011;7805;49.554;7.632;2022-12-19T00:37:38;53.00;;;28.20;;
15412;SDS011;7805;49.554;7.632;2022-12-19T00:40:04;54.20;;;28.80;;
15412;SDS011;7805;49.554;7.632;2022-12-19T00:42:31;54.73;;;29.57;;
15412;SDS011;7805;49.554;7.632;2022-12-19T00:44:57;57.43;;;29.33;;
15412;SDS011;7805;49.554;7.632;2022-12-19T00:47:22;61.97;;;31.87;;
15412;SDS011;7805;49.554;7.632;2022-12-19T00:49:48;54.60;;;30.07;;
15412;SDS011;7805;49.554;7.632;2022-12-19T00:52:13;55.67;;;30.63;;
15412;SDS011;7805;49.554;7.632;2022-12-19T00:54:39;55.67;;;30.67;;
15412;SDS011;7805;49.554;7.632;2022-12-19T00:57:05;57.23;;;30.23;;
15412;SDS011;7805;49.554;7.632;2022-12-19T00:59:30;58.43;;;31.60;;
15412;SDS011;7805;49.554;7.632;2022-12-19T01:01:56;58.07;;;31.40;;
15412;SDS011;7805;49.554;7.632;2022-12-19T01:04:21;59.43;;;29.50;;
15412;SDS011;7805;49.554;7.632;2022-12-19T01:06:47;54.43;;;29.70;;
15412;SDS011;7805;49.554;7.632;2022-12-19T01:09:13;55.40;;;28.70;;
15412;SDS011;7805;49.554;7.632;2022-12-19T01:11:39;57.73;;;30.10;;
15412;SDS011;7805;49.554;7.632;2022-12-19T01:14:23;58.47;;;29.23;;
15412;SDS011;7805;49.554;7.632;2022-12-19T01:16:49;58.60;;;30.57;;
15412;SDS011;7805;49.554;7.632;2022-12-19T01:19:15;52.37;;;28.70;;
15412;SDS011;7805;49.554;7.632;2022-12-19T01:21:41;61.60;;;30.97;;
15412;SDS011;7805;49.554;7.632;2022-12-19T01:24:06;54.87;;;29.50;;
15412;SDS011;7805;49.554;7.632;2022-12-19T01:26:32;55.50;;;30.37;;
15412;SDS011;7805;49.554;7.632;2022-12-19T01:28:57;53.87;;;28.13;;
15412;SDS011;7805;49.554;7.632;2022-12-19T01:31:23;51.40;;;29.30;;
15412;SDS011;7805;49.554;7.632;2022-12-19T01:33:49;50.77;;;28.83;;
15412;SDS011;7805;49.554;7.632;2022-12-19T01:36:14;51.50;;;28.10;;
15412;SDS011;7805;49.554;7.632;2022-12-19T01:38:40;52.27;;;26.80;;
15412;SDS011;7805;49.554;7.632;2022-12-19T01:41:05;54.67;;;29.40;;
15412;SDS011;7805;49.554;7.632;2022-12-19T01:43:32;53.47;;;28.63;;
15412;SDS011;7805;49.554;7.632;2022-12-19T01:48:58;52.40;;;28.10;;
15412;SDS011;7805;49.554;7.632;2022-12-19T01:51:25;53.13;;;28.67;;
15412;SDS011;7805;49.554;7.632;2022-12-19T01:53:59;54.00;;;28.40;;
15412;SDS011;7805;49.554;7.632;2022-12-19T01:56:31;54.23;;;29.80;;
15412;SDS011;7805;49.554;7.632;2022-12-19T01:59:01;58.43;;;31.10;;
15412;SDS011;7805;49.554;7.632;2022-12-19T02:01:33;56.33;;;29.33;;
15412;SDS011;7805;49.554;7.632;2022-12-19T02:03:59;55.27;;;29.47;;
15412;SDS011;7805;49.554;7.632;2022-12-19T02:06:27;53.73;;;29.50;;
15412;SDS011;7805;49.554;7.632;2022-12-19T02:08:54;54.80;;;28.40;;
15412;SDS011;7805;49.554;7.632;2022-12-19T02:11:20;51.17;;;27.53;;
15412;SDS011;7805;49.554;7.632;2022-12-19T02:13:45;51.37;;;28.37;;
15412;SDS011;7805;49.554;7.632;2022-12-19T02:16:15;52.63;;;28.10;;
15412;SDS011;7805;49.554;7.632;2022-12-19T02:18:46;56.27;;;29.33;;
15412;SDS011;7805;49.554;7.632;2022-12-19T02:25:07;57.13;;;29.93;;
15412;SDS011;7805;49.554;7.632;2022-12-19T02:27:27;57.37;;;29.13;;
15412;SDS011;7805;49.554;7.632;2022-12-19T02:33:01;74.63;;;37.70;;
15412;SDS011;7805;49.554;7.632;2022-12-19T02:35:53;71.23;;;35.07;;
15412;SDS011;7805;49.554;7.632;2022-12-19T02:38:27;62.00;;;31.43;;
15412;SDS011;7805;49.554;7.632;2022-12-19T02:41:04;56.93;;;28.90;;
15412;SDS011;7805;49.554;7.632;2022-12-19T02:43:51;70.17;;;34.70;;
15412;SDS011;7805;49.554;7.632;2022-12-19T02:46:19;59.90;;;31.10;;
15412;SDS011;7805;49.554;7.632;2022-12-19T02:48:48;55.57;;;29.13;;
15412;SDS011;7805;49.554;7.632;2022-12-19T02:51:14;70.43;;;34.23;;
15412;SDS011;7805;49.554;7.632;2022-12-19T02:53:39;55.60;;;29.70;;
15412;SDS011;7805;49.554;7.632;2022-12-19T02:56:21;57.63;;;32.23;;
15412;SDS011;7805;49.554;7.632;2022-12-19T02:59:06;61.10;;;33.33;;
15412;SDS011;7805;49.554;7.632;2022-12-19T03:01:54;61.97;;;31.70;;
15412;SDS011;7805;49.554;7.632;2022-12-19T03:07:14;50.47;;;28.23;;
15412;SDS011;7805;49.554;7.632;2022-12-19T03:09:49;56.43;;;29.77;;
15412;SDS011;7805;49.554;7.632;2022-12-19T03:12:23;53.30;;;29.63;;
15412;SDS011;7805;49.554;7.632;2022-12-19T03:14:55;64.70;;;34.30;;
15412;SDS011;7805;49.554;7.632;2022-12-19T03:17:22;66.03;;;34.73;;
15412;SDS011;7805;49.554;7.632;2022-12-19T03:19:48;52.83;;;29.57;;
15412;SDS011;7805;49.554;7.632;2022-12-19T03:22:14;58.63;;;29.87;;
15412;SDS011;7805;49.554;7.632;2022-12-19T03:24:40;53.87;;;28.30;;
15412;SDS011;7805;49.554;7.632;2022-12-19T03:27:19;64.10;;;34.57;;
15412;SDS011;7805;49.554;7.632;2022-12-19T03:29:54;57.37;;;29.30;;
15412;SDS011;7805;49.554;7.632;2022-12-19T03:32:25;57.63;;;30.23;;
15412;SDS011;7805;49.554;7.632;2022-12-19T03:34:54;62.03;;;29.67;;
15412;SDS011;7805;49.554;7.632;2022-12-19T03:37:24;58.53;;;29.10;;
15412;SDS011;7805;49.554;7.632;2022-12-19T03:39:53;74.30;;;37.10;;
15412;SDS011;7805;49.554;7.632;2022-12-19T03:42:24;65.77;;;35.73;;
15412;SDS011;7805;49.554;7.632;2022-12-19T03:45:10;59.70;;;30.33;;
15412;SDS011;7805;49.554;7.632;2022-12-19T03:47:40;68.30;;;33.93;;
15412;SDS011;7805;49.554;7.632;2022-12-19T03:50:12;78.03;;;41.07;;
15412;SDS011;7805;49.554;7.632;2022-12-19T03:52:40;73.30;;;38.80;;
15412;SDS011;7805;49.554;7.632;2022-12-19T03:55:39;64.63;;;34.13;;
15412;SDS011;7805;49.554;7.632;2022-12-19T03:58:12;58.23;;;31.83;;
15412;SDS011;7805;49.554;7.632;2022-12-19T04:00:45;56.90;;;30.30;;
15412;SDS011;7805;49.554;7.632;2022-12-19T04:03:14;57.87;;;29.80;;
15412;SDS011;7805;49.554;7.632;2022-12-19T04:05:41;61.57;;;31.80;;
15412;SDS011;7805;49.554;7.632;2022-12-19T04:08:09;59.10;;;31.30;;
15412;SDS011;7805;49.554;7.632;2022-12-19T04:10:43;59.77;;;30.30;;
15412;SDS011;7805;49.554;7.632;2022-12-19T04:13:14;66.10;;;33.43;;
15412;SDS011;7805;49.554;7.632;2022-12-19T04:18:35;59.00;;;31.40;;
15412;SDS011;7805;49.554;7.632;2022-12-19T04:21:07;53.50;;;28.23;;
15412;SDS011;7805;49.554;7.632;2022-12-19T04:23:43;54.57;;;28.43;;
15412;SDS011;7805;49.554;7.632;2022-12-19T04:26:13;53.23;;;27.77;;
15412;SDS011;7805;49.554;7.632;2022-12-19T04:31:12;55.53;;;29.63;;
15412;SDS011;7805;49.554;7.632;2022-12-19T04:33:39;64.13;;;32.23;;
15412;SDS011;7805;49.554;7.632;2022-12-19T04:36:04;65.10;;;32.37;;
15412;SDS011;7805;49.554;7.632;2022-12-19T04:38:30;55.03;;;31.57;;
15412;SDS011;7805;49.554;7.632;2022-12-19T04:40:56;59.40;;;30.23;;
15412;SDS011;7805;49.554;7.632;2022-12-19T04:43:21;55.60;;;29.87;;
15412;SDS011;7805;49.554;7.632;2022-12-19T04:45:47;52.50;;;30.13;;
15412;SDS011;7805;49.554;7.632;2022-12-19T04:48:13;54.87;;;30.47;;
15412;SDS011;7805;49.554;7.632;2022-12-19T04:50:38;51.73;;;28.27;;
15412;SDS011;7805;49.554;7.632;2022-12-19T04:53:04;52.87;;;29.07;;
15412;SDS011;7805;49.554;7.632;2022-12-19T04:55:30;58.23;;;30.90;;
15412;SDS011;7805;49.554;7.632;2022-12-19T04:57:55;57.17;;;30.10;;
15412;SDS011;7805;49.554;7.632;2022-12-19T05:00:22;55.47;;;30.90;;
15412;SDS011;7805;49.554;7.632;2022-12-19T05:02:47;61.50;;;31.17;;
15412;SDS011;7805;49.554;7.632;2022-12-19T05:05:13;58.07;;;30.83;;
15412;SDS011;7805;49.554;7.632;2022-12-19T05:07:38;59.40;;;31.27;;
15412;SDS011;7805;49.554;7.632;2022-12-19T05:10:04;56.33;;;29.83;;
15412;SDS011;7805;49.554;7.632;2022-12-19T05:12:31;54.63;;;28.70;;
15412;SDS011;7805;49.554;7.632;2022-12-19T05:14:57;53.00;;;29.13;;
15412;SDS011;7805;49.554;7.632;2022-12-19T05:17:22;59.87;;;31.23;;
15412;SDS011;7805;49.554;7.632;2022-12-19T05:19:48;50.97;;;29.07;;
15412;SDS011;7805;49.554;7.632;2022-12-19T05:22:13;60.10;;;29.80;;
15412;SDS011;7805;49.554;7.632;2022-12-19T05:24:39;56.07;;;29.97;;
15412;SDS011;7805;49.554;7.632;2022-12-19T05:27:05;53.27;;;28.17;;
15412;SDS011;7805;49.554;7.632;2022-12-19T05:29:31;54.27;;;28.77;;
15412;SDS011;7805;49.554;7.632;2022-12-19T05:31:56;60.70;;;32.13;;
15412;SDS011;7805;49.554;7.632;2022-12-19T05:34:22;61.80;;;31.97;;
15412;SDS011;7805;49.554;7.632;2022-12-19T05:36:48;53.77;;;28.73;;
15412;SDS011;7805;49.554;7.632;2022-12-19T05:39:14;55.17;;;30.03;;
15412;SDS011;7805;49.554;7.632;2022-12-19T05:41:39;58.83;;;29.27;;
15412;SDS011;7805;49.554;7.632;2022-12-19T05:44:05;58.60;;;29.47;;
15412;SDS011;7805;49.554;7.632;2022-12-19T05:46:31;59.87;;;30.70;;
15412;SDS011;7805;49.554;7.632;2022-12-19T05:48:56;53.67;;;28.17;;
15412;SDS011;7805;49.554;7.632;2022-12-19T05:51:23;59.10;;;32.37;;
15412;SDS011;7805;49.554;7.632;2022-12-19T05:53:49;53.27;;;27.90;;
15412;SDS011;7805;49.554;7.632;2022-12-19T05:56:16;58.73;;;29.90;;
15412;SDS011;7805;49.554;7.632;2022-12-19T05:58:43;62.27;;;31.17;;
15412;SDS011;7805;49.554;7.632;2022-12-19T06:01:11;60.43;;;30.77;;
15412;SDS011;7805;49.554;7.632;2022-12-19T06:03:48;57.23;;;31.33;;
15412;SDS011;7805;49.554;7.632;2022-12-19T06:06:14;63.83;;;31.47;;
15412;SDS011;7805;49.554;7.632;2022-12-19T06:08:42;59.00;;;31.77;;
15412;SDS011;7805;49.554;7.632;2022-12-19T06:11:09;62.43;;;31.43;;
15412;SDS011;7805;49.554;7.632;2022-12-19T06:13:36;57.07;;;30.67;;
15412;SDS011;7805;49.554;7.632;2022-12-19T06:16:03;57.30;;;30.30;;
15412;SDS011;7805;49.554;7.632;2022-12-19T06:18:31;64.83;;;33.23;;
15412;SDS011;7805;49.554;7.632;2022-12-19T06:21:01;59.60;;;32.17;;
15412;SDS011;7805;49.554;7.632;2022-12-19T06:23:29;63.50;;;34.13;;
15412;SDS011;7805;49.554;7.632;2022-12-19T06:25:56;58.87;;;31.03;;
15412;SDS011;7805;49.554;7.632;2022-12-19T06:28:23;61.60;;;31.63;;
15412;SDS011;7805;49.554;7.632;2022-12-19T06:30:49;60.30;;;30.00;;
15412;SDS011;7805;49.554;7.632;2022-12-19T06:33:15;65.07;;;35.93;;
15412;SDS011;7805;49.554;7.632;2022-12-19T06:35:40;56.70;;;31.07;;
15412;SDS011;7805;49.554;7.632;2022-12-19T06:38:06;66.40;;;34.57;;
15412;SDS011;7805;49.554;7.632;2022-12-19T06:40:31;63.27;;;34.07;;
15412;SDS011;7805;49.554;7.632;2022-12-19T06:43:16;61.10;;;32.20;;
15412;SDS011;7805;49.554;7.632;2022-12-19T06:45:41;61.67;;;33.60;;
15412;SDS011;7805;49.554;7.632;2022-12-19T06:48:07;64.30;;;33.00;;
15412;SDS011;7805;49.554;7.632;2022-12-19T06:50:33;54.20;;;29.53;;
15412;SDS011;7805;49.554;7.632;2022-12-19T06:52:59;59.10;;;31.20;;
15412;SDS011;7805;49.554;7.632;2022-12-19T06:55:25;62.93;;;32.00;;
15412;SDS011;7805;49.554;7.632;2022-12-19T06:57:51;55.83;;;29.40;;
15412;SDS011;7805;49.554;7.632;2022-12-19T07:00:16;55.43;;;29.73;;
15412;SDS011;7805;49.554;7.632;2022-12-19T07:02:43;60.40;;;29.83;;
15412;SDS011;7805;49.554;7.632;2022-12-19T07:05:13;57.87;;;31.00;;
15412;SDS011;7805;49.554;7.632;2022-12-19T07:07:39;56.20;;;31.03;;
15412;SDS011;7805;49.554;7.632;2022-12-19T07:10:06;56.57;;;30.67;;
15412;SDS011;7805;49.554;7.632;2022-12-19T07:12:33;60.20;;;31.97;;
15412;SDS011;7805;49.554;7.632;2022-12-19T07:14:59;55.23;;;31.13;;
15412;SDS011;7805;49.554;7.632;2022-12-19T07:17:25;58.53;;;31.60;;
15412;SDS011;7805;49.554;7.632;2022-12-19T07:19:53;60.83;;;31.00;;
15412;SDS011;7805;49.554;7.632;2022-12-19T07:22:21;64.43;;;32.93;;
15412;SDS011;7805;49.554;7.632;2022-12-19T07:24:48;54.87;;;31.33;;
15412;SDS011;7805;49.554;7.632;2022-12-19T07:27:14;57.30;;;30.20;;
15412;SDS011;7805;49.554;7.632;2022-12-19T07:29:40;59.33;;;31.27;;
15412;SDS011;7805;49.554;7.632;2022-12-19T07:32:05;62.80;;;32.30;;
15412;SDS011;7805;49.554;7.632;2022-12-19T07:34:31;57.33;;;30.70;;
15412;SDS011;7805;49.554;7.632;2022-12-19T07:36:56;58.90;;;32.37;;
15412;SDS011;7805;49.554;7.632;2022-12-19T07:39:22;59.23;;;32.33;;
15412;SDS011;7805;49.554;7.632;2022-12-19T07:44:13;57.63;;;31.27;;
15412;SDS011;7805;49.554;7.632;2022-12-19T07:46:40;58.80;;;33.17;;
15412;SDS011;7805;49.554;7.632;2022-12-19T07:49:06;61.60;;;33.40;;
15412;SDS011;7805;49.554;7.632;2022-12-19T07:51:31;61.00;;;34.77;;
15412;SDS011;7805;49.554;7.632;2022-12-19T07:53:57;77.70;;;41.07;;
15412;SDS011;7805;49.554;7.632;2022-12-19T07:56:23;96.43;;;57.90;;
15412;SDS011;7805;49.554;7.632;2022-12-19T07:58:48;85.57;;;50.43;;
15412;SDS011;7805;49.554;7.632;2022-12-19T08:01:14;72.80;;;39.07;;
15412;SDS011;7805;49.554;7.632;2022-12-19T08:03:40;68.07;;;36.37;;
15412;SDS011;7805;49.554;7.632;2022-12-19T08:06:06;60.17;;;34.47;;
15412;SDS011;7805;49.554;7.632;2022-12-19T08:08:32;57.53;;;33.10;;
15412;SDS011;7805;49.554;7.632;2022-12-19T08:11:05;56.90;;;30.80;;
15412;SDS011;7805;49.554;7.632;2022-12-19T08:13:41;59.40;;;33.87;;
15412;SDS011;7805;49.554;7.632;2022-12-19T08:16:07;61.20;;;36.20;;
15412;SDS011;7805;49.554;7.632;2022-12-19T08:18:33;51.27;;;30.50;;
15412;SDS011;7805;49.554;7.632;2022-12-19T08:20:59;58.43;;;33.37;;
15412;SDS011;7805;49.554;7.632;2022-12-19T08:23:24;59.27;;;33.63;;
15412;SDS011;7805;49.554;7.632;2022-12-19T08:26:00;64.43;;;33.93;;
15412;SDS011;7805;49.554;7.632;2022-12-19T08:28:28;58.87;;;32.13;;
15412;SDS011;7805;49.554;7.632;2022-12-19T08:30:54;60.63;;;33.37;;
15412;SDS011;7805;49.554;7.632;2022-12-19T08:33:20;60.33;;;33.13;;
15412;SDS011;7805;49.554;7.632;2022-12-19T08:35:45;54.80;;;30.93;;
15412;SDS011;7805;49.554;7.632;2022-12-19T08:38:11;54.47;;;30.77;;
15412;SDS011;7805;49.554;7.632;2022-12-19T08:40:36;58.03;;;32.70;;
15412;SDS011;7805;49.554;7.632;2022-12-19T08:43:02;63.03;;;32.93;;
15412;SDS011;7805;49.554;7.632;2022-12-19T08:45:27;62.10;;;33.00;;
15412;SDS011;7805;49.554;7.632;2022-12-19T08:47:53;59.70;;;31.73;;
15412;SDS011;7805;49.554;7.632;2022-12-19T08:50:19;65.97;;;34.77;;
15412;SDS011;7805;49.554;7.632;2022-12-19T08:52:44;61.70;;;34.47;;
15412;SDS011;7805;49.554;7.632;2022-12-19T08:55:10;61.50;;;33.57;;
15412;SDS011;7805;49.554;7.632;2022-12-19T08:57:35;62.03;;;36.40;;
15412;SDS011;7805;49.554;7.632;2022-12-19T09:00:02;65.83;;;35.57;;
15412;SDS011;7805;49.554;7.632;2022-12-19T09:02:29;67.63;;;35.23;;
15412;SDS011;7805;49.554;7.632;2022-12-19T09:04:54;62.40;;;34.70;;
15412;SDS011;7805;49.554;7.632;2022-12-19T09:07:20;62.90;;;35.33;;
15412;SDS011;7805;49.554;7.632;2022-12-19T09:09:45;55.73;;;31.60;;
15412;SDS011;7805;49.554;7.632;2022-12-19T09:12:12;57.13;;;31.90;;
15412;SDS011;7805;49.554;7.632;2022-12-19T09:14:38;54.87;;;31.13;;
15412;SDS011;7805;49.554;7.632;2022-12-19T09:17:03;53.40;;;29.07;;
15412;SDS011;7805;49.554;7.632;2022-12-19T09:19:29;54.60;;;31.43;;
15412;SDS011;7805;49.554;7.632;2022-12-19T09:21:54;54.80;;;29.83;;
15412;SDS011;7805;49.554;7.632;2022-12-19T09:24:20;56.13;;;30.60;;
15412;SDS011;7805;49.554;7.632;2022-12-19T09:26:46;56.47;;;32.43;;
15412;SDS011;7805;49.554;7.632;2022-12-19T09:29:11;57.27;;;32.20;;
15412;SDS011;7805;49.554;7.632;2022-12-19T09:31:37;55.70;;;31.77;;
15412;SDS011;7805;49.554;7.632;2022-12-19T09:34:02;62.43;;;36.17;;
15412;SDS011;7805;49.554;7.632;2022-12-19T09:36:28;57.70;;;33.13;;
15412;SDS011;7805;49.554;7.632;2022-12-19T09:38:56;62.87;;;36.50;;
15412;SDS011;7805;49.554;7.632;2022-12-19T09:49:23;56.20;;;34.07;;
15412;SDS011;7805;49.554;7.632;2022-12-19T09:57:09;55.47;;;32.00;;
15412;SDS011;7805;49.554;7.632;2022-12-19T10:00:22;60.43;;;32.00;;
15412;SDS011;7805;49.554;7.632;2022-12-19T10:02:47;62.13;;;34.73;;
15412;SDS011;7805;49.554;7.632;2022-12-19T10:07:48;51.23;;;31.63;;
15412;SDS011;7805;49.554;7.632;2022-12-19T10:10:17;57.83;;;33.13;;
15412;SDS011;7805;49.554;7.632;2022-12-19T10:21:11;56.70;;;35.47;;
15412;SDS011;7805;49.554;7.632;2022-12-19T10:23:54;58.93;;;32.57;;
15412;SDS011;7805;49.554;7.632;2022-12-19T10:26:28;55.93;;;33.37;;
15412;SDS011;7805;49.554;7.632;2022-12-19T10:29:26;60.00;;;34.60;;
15412;SDS011;7805;49.554;7.632;2022-12-19T10:31:59;47.67;;;27.53;;
15412;SDS011;7805;49.554;7.632;2022-12-19T10:34:47;50.70;;;33.67;;
15412;SDS011;7805;49.554;7.632;2022-12-19T10:37:19;53.17;;;31.77;;
15412;SDS011;7805;49.554;7.632;2022-12-19T10:45:15;63.07;;;35.10;;
15412;SDS011;7805;49.554;7.632;2022-12-19T10:47:50;61.77;;;35.27;;
15412;SDS011;7805;49.554;7.632;2022-12-19T10:50:22;61.83;;;38.10;;
15412;SDS011;7805;49.554;7.632;2022-12-19T10:58:10;64.03;;;36.30;;
15412;SDS011;7805;49.554;7.632;2022-12-19T11:00:36;81.90;;;42.97;;
15412;SDS011;7805;49.554;7.632;2022-12-19T11:03:09;75.17;;;42.20;;
15412;SDS011;7805;49.554;7.632;2022-12-19T11:05:42;69.67;;;36.17;;
15412;SDS011;7805;49.554;7.632;2022-12-19T11:10:52;67.60;;;37.40;;
15412;SDS011;7805;49.554;7.632;2022-12-19T11:16:00;60.10;;;36.20;;
15412;SDS011;7805;49.554;7.632;2022-12-19T11:24:01;52.40;;;31.53;;
15412;SDS011;7805;49.554;7.632;2022-12-19T11:31:43;58.47;;;34.47;;
15412;SDS011;7805;49.554;7.632;2022-12-19T11:34:18;59.07;;;34.00;;
15412;SDS011;7805;49.554;7.632;2022-12-19T11:36:54;56.90;;;34.90;;
15412;SDS011;7805;49.554;7.632;2022-12-19T11:39:43;58.73;;;33.60;;
15412;SDS011;7805;49.554;7.632;2022-12-19T11:47:46;54.90;;;33.03;;
15412;SDS011;7805;49.554;7.632;2022-12-19T11:50:28;52.33;;;32.30;;
15412;SDS011;7805;49.554;7.632;2022-12-19T11:56:00;59.70;;;34.33;;
15412;SDS011;7805;49.554;7.632;2022-12-19T11:58:29;55.30;;;34.13;;
15412;SDS011;7805;49.554;7.632;2022-12-19T12:03:43;65.93;;;38.77;;
15412;SDS011;7805;49.554;7.632;2022-12-19T12:06:33;65.50;;;37.23;;
15412;SDS011;7805;49.554;7.632;2022-12-19T12:14:26;57.30;;;32.80;;
15412;SDS011;7805;49.554;7.632;2022-12-19T12:17:01;63.63;;;35.47;;
15412;SDS011;7805;49.554;7.632;2022-12-19T12:30:53;50.90;;;29.93;;
15412;SDS011;7805;49.554;7.632;2022-12-19T12:33:29;56.07;;;31.33;;
15412;SDS011;7805;49.554;7.632;2022-12-19T12:36:04;62.73;;;34.67;;
15412;SDS011;7805;49.554;7.632;2022-12-19T12:44:36;78.10;;;42.77;;
15412;SDS011;7805;49.554;7.632;2022-12-19T12:50:01;75.77;;;44.00;;
15412;SDS011;7805;49.554;7.632;2022-12-19T12:54:55;69.30;;;37.77;;
15412;SDS011;7805;49.554;7.632;2022-12-19T13:02:41;59.17;;;33.47;;
15412;SDS011;7805;49.554;7.632;2022-12-19T13:05:19;59.37;;;33.93;;
15412;SDS011;7805;49.554;7.632;2022-12-19T13:08:30;56.10;;;32.77;;
15412;SDS011;7805;49.554;7.632;2022-12-19T13:11:01;52.53;;;31.63;;
15412;SDS011;7805;49.554;7.632;2022-12-19T13:16:47;56.47;;;32.50;;
15412;SDS011;7805;49.554;7.632;2022-12-19T13:19:20;59.13;;;33.60;;
15412;SDS011;7805;49.554;7.632;2022-12-19T13:24:38;56.90;;;32.60;;
15412;SDS011;7805;49.554;7.632;2022-12-19T13:27:30;52.73;;;32.37;;
15412;SDS011;7805;49.554;7.632;2022-12-19T13:37:41;51.73;;;31.83;;
15412;SDS011;7805;49.554;7.632;2022-12-19T13:43:00;51.90;;;31.33;;
15412;SDS011;7805;49.554;7.632;2022-12-19T13:45:52;59.67;;;32.43;;
15412;SDS011;7805;49.554;7.632;2022-12-19T13:50:59;53.33;;;31.67;;
15412;SDS011;7805;49.554;7.632;2022-12-19T13:53:29;61.90;;;35.73;;
15412;SDS011;7805;49.554;7.632;2022-12-19T13:55:58;58.63;;;35.43;;
15412;SDS011;7805;49.554;7.632;2022-12-19T13:58:29;61.70;;;37.07;;
15412;SDS011;7805;49.554;7.632;2022-12-19T14:01:43;60.60;;;35.17;;
15412;SDS011;7805;49.554;7.632;2022-12-19T14:06:57;64.47;;;37.70;;
15412;SDS011;7805;49.554;7.632;2022-12-19T14:09:33;59.10;;;35.63;;
15412;SDS011;7805;49.554;7.632;2022-12-19T14:12:02;54.17;;;33.83;;
15412;SDS011;7805;49.554;7.632;2022-12-19T14:14:30;64.17;;;38.60;;
15412;SDS011;7805;49.554;7.632;2022-12-19T14:17:16;65.77;;;36.93;;
15412;SDS011;7805;49.554;7.632;2022-12-19T14:19:48;55.67;;;33.63;;
15412;SDS011;7805;49.554;7.632;2022-12-19T14:24:52;56.63;;;34.33;;
15412;SDS011;7805;49.554;7.632;2022-12-19T14:27:28;61.53;;;35.40;;
15412;SDS011;7805;49.554;7.632;2022-12-19T14:30:02;60.27;;;34.83;;
15412;SDS011;7805;49.554;7.632;2022-12-19T14:32:30;59.63;;;35.00;;
15412;SDS011;7805;49.554;7.632;2022-12-19T14:34:57;57.80;;;33.17;;
15412;SDS011;7805;49.554;7.632;2022-12-19T14:37:34;56.27;;;34.67;;
15412;SDS011;7805;49.554;7.632;2022-12-19T14:40:10;58.60;;;34.20;;
15412;SDS011;7805;49.554;7.632;2022-12-19T14:42:49;56.70;;;33.23;;
15412;SDS011;7805;49.554;7.632;2022-12-19T14:45:36;57.13;;;33.47;;
15412;SDS011;7805;49.554;7.632;2022-12-19T14:51:00;53.03;;;32.93;;
15412;SDS011;7805;49.554;7.632;2022-12-19T14:53:29;61.23;;;35.27;;
15412;SDS011;7805;49.554;7.632;2022-12-19T14:56:09;56.60;;;34.73;;
15412;SDS011;7805;49.554;7.632;2022-12-19T14:58:41;68.90;;;41.30;;
15412;SDS011;7805;49.554;7.632;2022-12-19T15:01:18;66.30;;;39.40;;
15412;SDS011;7805;49.554;7.632;2022-12-19T15:03:49;63.73;;;39.30;;
15412;SDS011;7805;49.554;7.632;2022-12-19T15:06:18;62.57;;;36.23;;
15412;SDS011;7805;49.554;7.632;2022-12-19T15:08:49;61.10;;;36.87;;
15412;SDS011;7805;49.554;7.632;2022-12-19T15:11:25;60.23;;;35.97;;
15412;SDS011;7805;49.554;7.632;2022-12-19T15:14:10;65.77;;;38.00;;
15412;SDS011;7805;49.554;7.632;2022-12-19T15:16:36;59.17;;;35.60;;
15412;SDS011;7805;49.554;7.632;2022-12-19T15:19:02;65.07;;;38.23;;
15412;SDS011;7805;49.554;7.632;2022-12-19T15:21:35;60.70;;;35.83;;
15412;SDS011;7805;49.554;7.632;2022-12-19T15:24:01;63.83;;;37.93;;
15412;SDS011;7805;49.554;7.632;2022-12-19T15:26:27;64.00;;;37.63;;
15412;SDS011;7805;49.554;7.632;2022-12-19T15:28:55;67.93;;;39.83;;
15412;SDS011;7805;49.554;7.632;2022-12-19T15:33:57;76.40;;;43.07;;
15412;SDS011;7805;49.554;7.632;2022-12-19T15:36:22;68.37;;;40.33;;
15412;SDS011;7805;49.554;7.632;2022-12-19T15:38:48;70.00;;;40.00;;
15412;SDS011;7805;49.554;7.632;2022-12-19T15:41:15;70.50;;;39.90;;
15412;SDS011;7805;49.554;7.632;2022-12-19T15:43:46;71.63;;;41.10;;
15412;SDS011;7805;49.554;7.632;2022-12-19T15:46:12;83.83;;;45.60;;
15412;SDS011;7805;49.554;7.632;2022-12-19T15:48:39;71.43;;;42.07;;
15412;SDS011;7805;49.554;7.632;2022-12-19T15:51:12;66.50;;;36.93;;
15412;SDS011;7805;49.554;7.632;2022-12-19T15:53:39;65.00;;;37.00;;
15412;SDS011;7805;49.554;7.632;2022-12-19T15:56:04;71.53;;;38.97;;
15412;SDS011;7805;49.554;7.632;2022-12-19T15:58:49;66.93;;;36.37;;
15412;SDS011;7805;49.554;7.632;2022-12-19T16:01:16;68.90;;;37.47;;
15412;SDS011;7805;49.554;7.632;2022-12-19T16:03:41;60.93;;;35.47;;
15412;SDS011;7805;49.554;7.632;2022-12-19T16:06:11;63.87;;;36.93;;
15412;SDS011;7805;49.554;7.632;2022-12-19T16:08:37;60.57;;;37.00;;
15412;SDS011;7805;49.554;7.632;2022-12-19T16:11:03;71.90;;;40.30;;
15412;SDS011;7805;49.554;7.632;2022-12-19T16:13:29;69.10;;;40.80;;
15412;SDS011;7805;49.554;7.632;2022-12-19T16:15:58;73.60;;;42.80;;
15412;SDS011;7805;49.554;7.632;2022-12-19T16:18:23;70.37;;;42.93;;
15412;SDS011;7805;49.554;7.632;2022-12-19T16:20:49;66.83;;;40.27;;
15412;SDS011;7805;49.554;7.632;2022-12-19T16:23:14;62.90;;;39.07;;
15412;SDS011;7805;49.554;7.632;2022-12-19T16:25:41;64.40;;;38.33;;
15412;SDS011;7805;49.554;7.632;2022-12-19T16:28:12;68.33;;;39.27;;
15412;SDS011;7805;49.554;7.632;2022-12-19T16:30:41;64.23;;;37.33;;
15412;SDS011;7805;49.554;7.632;2022-12-19T16:33:24;69.23;;;40.03;;
15412;SDS011;7805;49.554;7.632;2022-12-19T16:35:54;64.13;;;38.60;;
15412;SDS011;7805;49.554;7.632;2022-12-19T16:38:21;68.30;;;40.77;;
15412;SDS011;7805;49.554;7.632;2022-12-19T16:40:48;70.37;;;40.50;;
15412;SDS011;7805;49.554;7.632;2022-12-19T16:43:37;67.43;;;38.30;;
15412;SDS011;7805;49.554;7.632;2022-12-19T16:46:03;67.60;;;38.60;;
15412;SDS011;7805;49.554;7.632;2022-12-19T16:48:30;65.03;;;37.87;;
15412;SDS011;7805;49.554;7.632;2022-12-19T16:50:59;57.50;;;35.00;;
15412;SDS011;7805;49.554;7.632;2022-12-19T16:53:25;64.73;;;38.93;;
15412;SDS011;7805;49.554;7.632;2022-12-19T16:55:51;64.23;;;36.97;;
15412;SDS011;7805;49.554;7.632;2022-12-19T16:58:19;61.00;;;34.43;;
15412;SDS011;7805;49.554;7.632;2022-12-19T17:00:48;61.13;;;36.77;;
15412;SDS011;7805;49.554;7.632;2022-12-19T17:05:47;80.00;;;46.03;;
15412;SDS011;7805;49.554;7.632;2022-12-19T17:08:12;89.73;;;49.37;;
15412;SDS011;7805;49.554;7.632;2022-12-19T17:10:38;80.97;;;44.57;;
15412;SDS011;7805;49.554;7.632;2022-12-19T17:13:08;69.30;;;40.27;;
15412;SDS011;7805;49.554;7.632;2022-12-19T17:15:35;87.60;;;48.90;;